Aérodrome :
LOGIN :

S'inscrire | Disclaimer

   EN    FR    IT 

 










Légende :    VFR   VFR Marginal   IFR   IFR Intensif   IFR Très Intensif
Visi : 
Plafond : 
>= 8 km
>= 3000ft
5 à 8 km
1000 à 3000 ft
1500m à 5 km
500 à 1000 ft
800 à 1500m
200 à 500 ft
< 800m
< 200 ft
Symboles :   Orages  Brouillard  Fortes neiges  Fortes précipitations  Vent > 20 kt
SIGMETs :   Divers  Orages  Givrage  Turbulence  Onde Orograph.  Cendres Volcan.







- Altitude de l'aérodrome : 302 ft
- Code IATA : MAH


LEMH - Menorca

DERNIER METAR :
  • 200000Z AUTO 31002KT 8000 FEW018/// ///20 Q1020

METARs EXPIRÉS :
  • 192330Z AUTO 32003KT 9000 FEW016/// ///20 Q1020
  • 192300Z AUTO 32002KT 9000 FEW014/// ///20 Q1020
  • 192230Z 31003KT 9999 FEW015 ///// Q1020
  • 192200Z 33003KT 9999 FEW015 ///// Q1020
  • 192130Z 34003KT 9999 FEW015 ///// Q1020
  • 192100Z 35005KT 9999 FEW015 ///// Q1020

TAF TAF LEMH
Valide du 19 à 21h jusqu'au 20 à 21h UTC


192000Z 1921/2021 36007KT 9999 FEW015 SCT030 TX29/2012Z TN20/2005Z
PROB40
TEMPO 1922/2007 BKN012
Pas de NOTAMs connus pour ce terrain.



MET'MAP, la Météo Aéronautique d'un coup d'oeil ! - Copyright ORBIFLY Décembre 2007 - Disclaimer

ORBIFLY MET'MAP TEAM :

Programmation & Développement : Alexandra Zaïnal
Conception & Développement : Baudouin d'Aumeries
Co-Programmation & Développement : Marc-Olivier Méhu
Soutien technique & logistique : Manuel Goepfert

Contact : metmap@orbifly.com




SOURCES & CREDITS :

   NOAA